createdAt,value
2022-12-01T00:02:07.127Z,1.74
2022-12-01T00:04:37.119Z,1.70
2022-12-01T00:07:07.040Z,1.64
2022-12-01T00:09:49.478Z,1.57
2022-12-01T00:12:19.829Z,1.51
2022-12-01T00:15:01.123Z,1.45
2022-12-01T00:17:31.944Z,1.43
2022-12-01T00:20:01.514Z,1.42
2022-12-01T00:22:31.120Z,1.37
2022-12-01T00:25:00.709Z,1.34
2022-12-01T00:27:31.507Z,1.35
2022-12-01T00:30:03.736Z,1.39
2022-12-01T00:32:33.666Z,1.46
2022-12-01T00:35:03.221Z,1.47
2022-12-01T00:37:33.499Z,1.44
2022-12-01T00:40:03.838Z,1.43
2022-12-01T00:42:33.801Z,1.37
2022-12-01T00:45:06.554Z,1.31
2022-12-01T00:47:36.164Z,1.28
2022-12-01T00:50:06.025Z,1.24
2022-12-01T00:52:35.977Z,1.20
2022-12-01T00:55:05.892Z,1.17
2022-12-01T00:57:35.754Z,1.14
2022-12-01T01:00:09.662Z,1.13
2022-12-01T01:02:41.784Z,1.15
2022-12-01T01:05:12.278Z,1.12
2022-12-01T01:07:41.959Z,1.24
2022-12-01T01:10:12.744Z,1.21
2022-12-01T01:12:42.329Z,1.24
2022-12-01T01:15:14.802Z,1.34
2022-12-01T01:17:44.483Z,1.43
2022-12-01T01:20:15.109Z,1.55
2022-12-01T01:22:44.879Z,1.54
2022-12-01T01:25:14.496Z,1.70
2022-12-01T01:27:44.117Z,1.76
2022-12-01T01:30:17.252Z,1.85
2022-12-01T01:32:47.026Z,1.94
2022-12-01T01:35:16.704Z,2.05
2022-12-01T01:37:46.352Z,2.20
2022-12-01T01:40:15.999Z,2.29
2022-12-01T01:42:45.683Z,2.35
2022-12-01T01:45:31.726Z,2.38
2022-12-01T01:48:04.487Z,2.47
2022-12-01T01:50:34.927Z,2.50
2022-12-01T01:53:07.089Z,2.54
2022-12-01T01:55:38.496Z,2.71
2022-12-01T01:58:11.570Z,2.79
2022-12-01T02:00:47.386Z,2.82
2022-12-01T02:03:21.186Z,2.92
2022-12-01T02:05:50.542Z,2.98
2022-12-01T02:08:20.332Z,3.05
2022-12-01T02:11:10.816Z,3.09
2022-12-01T02:13:51.476Z,3.08
2022-12-01T02:16:34.371Z,3.06
2022-12-01T02:19:23.695Z,3.11
2022-12-01T02:22:06.236Z,3.15
2022-12-01T02:25:07.144Z,3.17
2022-12-01T02:27:56.485Z,3.18
2022-12-01T02:30:40.393Z,3.17
2022-12-01T02:33:11.621Z,3.11
2022-12-01T02:35:48.994Z,3.06
2022-12-01T02:38:27.318Z,3.01
2022-12-01T02:41:04.381Z,2.97
2022-12-01T02:43:38.619Z,2.89
2022-12-01T02:46:15.495Z,2.87
2022-12-01T02:48:51.147Z,2.81
2022-12-01T02:51:24.205Z,2.76
2022-12-01T02:53:55.109Z,2.72
2022-12-01T02:56:26.005Z,2.71
2022-12-01T02:58:55.630Z,2.70
2022-12-01T03:01:52.293Z,2.68
2022-12-01T03:04:35.374Z,2.67
2022-12-01T03:07:15.722Z,2.66
2022-12-01T03:09:58.910Z,2.64
2022-12-01T03:12:37.466Z,2.63
2022-12-01T03:15:13.841Z,2.70
2022-12-01T03:17:52.205Z,2.70
2022-12-01T03:20:27.894Z,2.70
2022-12-01T03:23:04.344Z,2.66
2022-12-01T03:25:34.986Z,2.59
2022-12-01T03:28:22.441Z,2.53
2022-12-01T03:30:55.648Z,2.45
2022-12-01T03:33:32.570Z,2.42
2022-12-01T03:36:06.035Z,2.37
2022-12-01T03:38:39.235Z,2.33
2022-12-01T03:41:16.181Z,2.25
2022-12-01T03:43:53.544Z,2.18
2022-12-01T03:46:30.792Z,2.10
2022-12-01T03:49:03.940Z,2.05
2022-12-01T03:51:37.644Z,1.97
2022-12-01T03:54:13.260Z,1.93
2022-12-01T03:56:50.084Z,1.86
2022-12-01T03:59:23.276Z,1.85
2022-12-01T04:01:53.323Z,1.76
2022-12-01T04:04:25.578Z,1.72
2022-12-01T04:06:55.944Z,1.72
2022-12-01T04:09:25.691Z,1.67
2022-12-01T04:12:07.685Z,1.61
2022-12-01T04:14:37.410Z,1.54
2022-12-01T04:17:06.983Z,1.54
2022-12-01T04:19:39.153Z,1.49
2022-12-01T04:22:08.739Z,1.47
2022-12-01T04:24:38.303Z,1.40
2022-12-01T04:27:07.827Z,1.36
2022-12-01T04:29:37.523Z,1.34
2022-12-01T04:32:07.504Z,1.27
2022-12-01T04:34:39.904Z,1.23
2022-12-01T04:37:12.174Z,1.21
2022-12-01T04:39:42.220Z,1.23
2022-12-01T04:42:12.837Z,1.24
2022-12-01T04:44:42.773Z,1.23
2022-12-01T04:47:12.350Z,1.26
2022-12-01T04:49:44.629Z,1.32
2022-12-01T04:52:14.255Z,1.33
2022-12-01T04:54:43.914Z,1.31
2022-12-01T04:57:13.484Z,1.30
2022-12-01T04:59:43.050Z,1.29
2022-12-01T05:02:12.852Z,1.28
2022-12-01T05:04:48.094Z,1.29
2022-12-01T05:07:18.249Z,1.29
2022-12-01T05:09:48.240Z,1.33
2022-12-01T05:12:18.542Z,1.37
2022-12-01T05:14:48.825Z,1.39
2022-12-01T05:17:18.414Z,1.43
2022-12-01T05:20:03.202Z,1.45
2022-12-01T05:23:03.983Z,1.51
2022-12-01T05:25:22.568Z,1.54
2022-12-01T05:27:52.141Z,1.56
2022-12-01T05:30:25.625Z,1.60
2022-12-01T05:32:58.192Z,1.65
2022-12-01T05:35:30.726Z,1.69
2022-12-01T05:38:06.048Z,1.74
2022-12-01T05:40:37.518Z,1.73
2022-12-01T05:43:07.498Z,1.72
2022-12-01T05:45:37.539Z,1.72
2022-12-01T05:48:07.516Z,1.75
2022-12-01T05:50:41.898Z,1.72
2022-12-01T05:53:14.176Z,1.76
2022-12-01T05:55:44.383Z,1.71
2022-12-01T05:58:14.818Z,1.66
2022-12-01T06:00:46.313Z,1.65
2022-12-01T06:03:16.192Z,1.59
2022-12-01T06:05:48.679Z,1.55
2022-12-01T06:08:18.269Z,1.53
2022-12-01T06:10:47.898Z,1.50
2022-12-01T06:13:17.440Z,1.57
2022-12-01T06:15:47.294Z,1.59
2022-12-01T06:18:16.878Z,1.68
2022-12-01T06:20:49.146Z,1.73
2022-12-01T06:23:18.791Z,1.82
2022-12-01T06:25:48.512Z,1.92
2022-12-01T06:28:18.325Z,1.91
2022-12-01T06:30:48.386Z,1.94
2022-12-01T06:33:18.055Z,1.90
2022-12-01T06:35:50.227Z,1.90
2022-12-01T06:38:19.746Z,1.93
2022-12-01T06:40:49.321Z,1.94
2022-12-01T06:43:18.821Z,1.96
2022-12-01T06:45:48.465Z,2.01
2022-12-01T06:48:18.148Z,2.04
2022-12-01T06:50:50.304Z,2.07
2022-12-01T06:53:19.897Z,2.06
2022-12-01T06:55:49.489Z,2.06
2022-12-01T06:58:19.314Z,2.11
2022-12-01T07:00:52.270Z,2.16
2022-12-01T07:03:22.214Z,2.20
2022-12-01T07:06:00.982Z,2.14
2022-12-01T07:08:32.046Z,2.10
2022-12-01T07:11:02.646Z,2.06
2022-12-01T07:13:33.989Z,2.07
2022-12-01T07:16:04.166Z,2.10
2022-12-01T07:18:34.549Z,2.10
2022-12-01T07:21:08.832Z,2.12
2022-12-01T07:23:38.980Z,2.15
2022-12-01T07:26:10.746Z,2.15
2022-12-01T07:28:40.474Z,2.17
2022-12-01T07:31:12.579Z,2.19
2022-12-01T07:33:42.800Z,2.22
2022-12-01T07:36:16.152Z,2.22
2022-12-01T07:38:46.170Z,2.21
2022-12-01T07:41:19.203Z,2.21
2022-12-01T07:43:49.910Z,2.21
2022-12-01T07:46:23.807Z,2.30
2022-12-01T07:48:55.888Z,2.42
2022-12-01T07:51:29.014Z,2.52
2022-12-01T07:53:58.866Z,2.56
2022-12-01T07:56:28.486Z,2.65
2022-12-01T07:58:58.376Z,2.73
2022-12-01T08:01:28.667Z,2.78
2022-12-01T08:04:00.405Z,2.85
2022-12-01T08:06:32.909Z,2.90
2022-12-01T08:09:02.609Z,3.00
2022-12-01T08:11:32.276Z,3.10
2022-12-01T08:14:01.897Z,3.11
2022-12-01T08:16:31.608Z,3.18
2022-12-01T08:19:01.391Z,3.21
2022-12-01T08:21:33.927Z,3.26
2022-12-01T08:24:03.480Z,3.29
2022-12-01T08:26:33.674Z,3.35
2022-12-01T08:29:03.430Z,3.36
2022-12-01T08:31:36.777Z,3.39
2022-12-01T08:34:07.861Z,3.40
2022-12-01T08:36:40.094Z,3.40
2022-12-01T08:39:11.289Z,3.39
2022-12-01T08:41:40.888Z,3.42
2022-12-01T08:44:12.212Z,3.42
2022-12-01T08:46:41.939Z,3.43
2022-12-01T08:49:11.552Z,3.46
2022-12-01T08:51:43.835Z,3.47
2022-12-01T08:54:15.173Z,3.53
2022-12-01T08:56:47.923Z,3.60
2022-12-01T08:59:17.872Z,3.62
2022-12-01T09:01:57.493Z,3.65
2022-12-01T09:04:29.551Z,3.72
2022-12-01T09:07:01.757Z,3.73
2022-12-01T09:09:32.082Z,3.81
2022-12-01T09:12:01.747Z,3.86
2022-12-01T09:14:31.296Z,3.92
2022-12-01T09:17:00.926Z,4.02
2022-12-01T09:19:31.321Z,4.12
2022-12-01T09:22:03.599Z,4.20
2022-12-01T09:24:33.674Z,4.30
2022-12-01T09:27:03.719Z,4.37
2022-12-01T09:29:34.026Z,4.46
2022-12-01T09:32:03.997Z,4.55
2022-12-01T09:34:33.947Z,4.64
2022-12-01T09:37:06.963Z,4.76
2022-12-01T09:39:36.653Z,4.78
2022-12-01T09:42:10.827Z,4.84
2022-12-01T09:44:44.669Z,4.93
2022-12-01T09:47:22.066Z,5.02
2022-12-01T09:50:01.779Z,5.10
2022-12-01T09:55:17.164Z,5.18
2022-12-01T09:57:50.459Z,5.24
2022-12-01T10:00:22.830Z,5.22
2022-12-01T10:02:57.585Z,5.24
2022-12-01T10:05:33.411Z,5.28
2022-12-01T10:08:08.802Z,5.21
2022-12-01T10:10:42.465Z,5.13
2022-12-01T10:13:20.983Z,5.06
2022-12-01T10:15:57.726Z,5.12
2022-12-01T10:18:43.717Z,5.20
2022-12-01T10:21:19.397Z,5.30
2022-12-01T10:24:08.392Z,5.39
2022-12-01T10:26:47.423Z,5.46
2022-12-01T10:29:26.328Z,5.49
2022-12-01T10:31:58.420Z,5.51
2022-12-01T10:34:32.010Z,5.58
2022-12-01T10:37:02.150Z,5.61
2022-12-01T10:39:37.723Z,5.71
2022-12-01T10:42:10.481Z,5.77
2022-12-01T10:44:40.472Z,5.82
2022-12-01T10:47:20.054Z,5.76
2022-12-01T10:49:50.799Z,5.85
2022-12-01T10:55:31.860Z,6.01
2022-12-01T10:58:09.314Z,5.98
2022-12-01T11:00:59.224Z,6.05
2022-12-01T11:03:32.096Z,5.96
2022-12-01T11:06:04.051Z,6.01
2022-12-01T11:08:41.912Z,6.13
2022-12-01T11:11:27.957Z,6.24
2022-12-01T11:13:58.484Z,6.31
2022-12-01T11:16:40.149Z,6.40
2022-12-01T11:19:27.812Z,6.52
2022-12-01T11:21:59.843Z,6.62
2022-12-01T11:24:48.319Z,6.51
2022-12-01T11:27:23.848Z,6.52
2022-12-01T11:29:56.155Z,6.56
2022-12-01T11:32:28.693Z,6.60
2022-12-01T11:35:02.585Z,6.73
2022-12-01T11:37:36.049Z,6.77
2022-12-01T11:40:12.762Z,6.81
2022-12-01T11:42:50.310Z,6.82
2022-12-01T11:45:37.343Z,6.87
2022-12-01T11:48:10.459Z,6.91
2022-12-01T11:50:42.637Z,6.88
2022-12-01T11:53:30.070Z,6.99
2022-12-01T11:56:17.568Z,6.97
2022-12-01T11:58:51.978Z,7.15
2022-12-01T12:01:34.070Z,7.13
2022-12-01T12:04:19.856Z,7.18
2022-12-01T12:06:58.858Z,7.10
2022-12-01T12:09:52.005Z,7.16
2022-12-01T12:12:35.610Z,7.26
2022-12-01T12:15:21.056Z,7.41
2022-12-01T12:18:05.661Z,7.42
2022-12-01T12:20:54.430Z,7.47
2022-12-01T12:23:42.934Z,7.52
2022-12-01T12:26:24.547Z,7.46
2022-12-01T12:29:13.825Z,7.44
2022-12-01T12:32:03.978Z,7.36
2022-12-01T12:34:47.525Z,7.44
2022-12-01T12:37:29.516Z,7.50
2022-12-01T12:40:23.299Z,7.56
2022-12-01T12:43:06.716Z,7.54
2022-12-01T12:45:50.653Z,7.47
2022-12-01T12:48:38.742Z,7.52
2022-12-01T12:51:25.463Z,7.43
2022-12-01T12:54:16.108Z,7.41
2022-12-01T12:56:49.417Z,7.22
2022-12-01T12:59:24.619Z,7.26
2022-12-01T13:02:02.425Z,7.24
2022-12-01T13:04:44.964Z,7.19
2022-12-01T13:07:28.573Z,7.17
2022-12-01T13:10:04.108Z,7.14
2022-12-01T13:12:39.549Z,7.03
2022-12-01T13:15:19.119Z,7.04
2022-12-01T13:17:53.560Z,6.90
2022-12-01T13:20:29.000Z,6.83
2022-12-01T13:23:01.011Z,6.81
2022-12-01T13:25:35.272Z,6.79
2022-12-01T13:28:09.303Z,6.73
2022-12-01T13:30:38.965Z,6.70
2022-12-01T13:33:09.993Z,6.72
2022-12-01T13:35:42.973Z,6.64
2022-12-01T13:38:24.915Z,6.57
2022-12-01T13:41:13.433Z,6.53
2022-12-01T13:43:55.730Z,6.50
2022-12-01T13:46:27.865Z,6.46
2022-12-01T13:48:59.617Z,6.40
2022-12-01T13:52:07.089Z,6.43
2022-12-01T13:54:38.978Z,6.43
2022-12-01T13:57:15.082Z,6.44
2022-12-01T14:00:08.199Z,6.35
2022-12-01T14:02:39.359Z,6.39
2022-12-01T14:05:51.286Z,6.27
2022-12-01T14:08:28.148Z,6.22
2022-12-01T14:11:00.762Z,6.21
2022-12-01T14:13:32.405Z,6.13
2022-12-01T14:16:05.684Z,6.14
2022-12-01T14:18:38.668Z,6.22
2022-12-01T14:21:11.245Z,6.24
2022-12-01T14:24:02.845Z,6.27
2022-12-01T14:26:34.921Z,6.30
2022-12-01T14:29:29.814Z,6.29
2022-12-01T14:32:28.528Z,6.29
2022-12-01T14:35:10.353Z,6.31
2022-12-01T14:37:46.569Z,6.31
2022-12-01T14:40:27.680Z,6.14
2022-12-01T14:43:12.941Z,6.05
2022-12-01T14:45:48.682Z,5.98
2022-12-01T14:48:24.529Z,5.92
2022-12-01T14:51:01.413Z,5.86
2022-12-01T14:53:34.800Z,5.76
2022-12-01T14:56:16.303Z,5.68
2022-12-01T14:58:54.946Z,5.62
2022-12-01T15:01:26.252Z,5.55
2022-12-01T15:04:01.095Z,5.55
2022-12-01T15:06:32.785Z,5.42
2022-12-01T15:09:32.836Z,5.34
2022-12-01T15:12:04.986Z,5.22
2022-12-01T15:17:53.077Z,5.05
2022-12-01T15:20:33.964Z,5.01
2022-12-01T15:23:05.495Z,4.97
2022-12-01T15:25:37.218Z,4.89
2022-12-01T15:28:16.150Z,4.81
2022-12-01T15:30:48.247Z,4.76
2022-12-01T15:33:27.643Z,4.67
2022-12-01T15:35:59.512Z,4.58
2022-12-01T15:38:32.789Z,4.49
2022-12-01T15:44:03.587Z,4.32
2022-12-01T15:46:35.301Z,4.22
2022-12-01T15:49:11.628Z,4.14
2022-12-01T15:51:41.493Z,4.06
2022-12-01T15:54:22.172Z,3.97
2022-12-01T15:56:56.672Z,3.90
2022-12-01T15:59:36.626Z,3.81
2022-12-01T16:02:27.008Z,3.74
2022-12-01T16:05:05.229Z,3.67
2022-12-01T16:08:11.480Z,3.55
2022-12-01T16:10:32.751Z,3.49
2022-12-01T16:13:32.785Z,3.45
2022-12-01T16:16:23.090Z,3.38
2022-12-01T16:18:58.379Z,3.31
2022-12-01T16:21:28.797Z,3.25
2022-12-01T16:24:03.554Z,3.18
2022-12-01T16:26:34.686Z,3.11
2022-12-01T16:29:04.892Z,3.08
2022-12-01T16:31:52.624Z,3.02
2022-12-01T16:34:45.152Z,2.95
2022-12-01T16:37:15.561Z,2.91
2022-12-01T16:39:45.437Z,2.83
2022-12-01T16:42:16.976Z,2.77
2022-12-01T16:44:48.361Z,2.72
2022-12-01T16:49:58.080Z,2.58
2022-12-01T16:52:44.547Z,2.53
2022-12-01T16:55:39.056Z,2.49
2022-12-01T16:58:08.683Z,2.44
2022-12-01T17:00:38.852Z,2.39
2022-12-01T17:03:13.994Z,2.33
2022-12-01T17:05:43.784Z,2.30
2022-12-01T17:08:13.834Z,2.25
2022-12-01T17:10:45.656Z,2.19
2022-12-01T17:13:16.272Z,2.19
2022-12-01T17:15:47.183Z,2.17
2022-12-01T17:18:21.326Z,2.15
2022-12-01T17:21:00.050Z,2.11
2022-12-01T17:23:30.007Z,2.07
2022-12-01T17:25:59.638Z,2.03
2022-12-01T17:28:33.171Z,1.96
2022-12-01T17:31:03.407Z,1.93
2022-12-01T17:33:37.329Z,1.90
2022-12-01T17:36:09.396Z,1.91
2022-12-01T17:38:40.317Z,1.85
2022-12-01T17:44:15.683Z,1.75
2022-12-01T17:46:45.525Z,1.72
2022-12-01T17:49:17.934Z,1.73
2022-12-01T17:51:48.405Z,1.71
2022-12-01T17:54:18.123Z,1.70
2022-12-01T17:56:48.296Z,1.68
2022-12-01T17:59:18.073Z,1.66
2022-12-01T18:01:48.394Z,1.63
2022-12-01T18:04:44.822Z,1.60
2022-12-01T18:07:15.385Z,1.59
2022-12-01T18:09:45.369Z,1.57
2022-12-01T18:12:14.995Z,1.52
2022-12-01T18:14:44.628Z,1.47
2022-12-01T18:17:14.276Z,1.43
2022-12-01T18:19:46.866Z,1.42
2022-12-01T18:22:16.734Z,1.34
2022-12-01T18:24:46.633Z,1.32
2022-12-01T18:27:16.336Z,1.28
2022-12-01T18:29:46.188Z,1.23
2022-12-01T18:32:16.762Z,1.21
2022-12-01T18:34:49.666Z,1.18
2022-12-01T18:37:19.854Z,1.18
2022-12-01T18:39:49.707Z,1.19
2022-12-01T18:42:19.583Z,1.20
2022-12-01T18:44:50.007Z,1.21
2022-12-01T18:47:19.836Z,1.22
2022-12-01T18:49:52.254Z,1.24
2022-12-01T18:52:21.921Z,1.24
2022-12-01T18:54:51.835Z,1.24
2022-12-01T18:57:21.840Z,1.25
2022-12-01T18:59:51.389Z,1.27
2022-12-01T19:02:21.186Z,1.31
2022-12-01T19:04:53.460Z,1.32
2022-12-01T19:07:29.378Z,1.30
2022-12-01T19:09:59.621Z,1.35
2022-12-01T19:12:29.458Z,1.39
2022-12-01T19:14:59.205Z,1.40
2022-12-01T19:17:28.785Z,1.45
2022-12-01T19:20:01.402Z,1.46
2022-12-01T19:22:31.163Z,1.47
2022-12-01T19:25:01.099Z,1.49
2022-12-01T19:27:31.897Z,1.52
2022-12-01T19:30:01.900Z,1.56
2022-12-01T19:32:33.931Z,1.61
2022-12-01T19:35:06.391Z,1.64
2022-12-01T19:37:36.010Z,1.68
2022-12-01T19:40:05.690Z,1.69
2022-12-01T19:42:35.294Z,1.70
2022-12-01T19:45:04.883Z,1.70
2022-12-01T19:47:34.949Z,1.73
2022-12-01T19:50:08.207Z,1.76
2022-12-01T19:52:41.416Z,1.80
2022-12-01T19:55:11.969Z,1.83
2022-12-01T19:57:41.604Z,1.83
2022-12-01T20:00:12.855Z,1.86
2022-12-01T20:02:42.573Z,1.88
2022-12-01T20:05:14.968Z,1.89
2022-12-01T20:07:44.781Z,1.93
2022-12-01T20:10:15.038Z,1.99
2022-12-01T20:12:44.775Z,2.02
2022-12-01T20:15:14.461Z,2.05
2022-12-01T20:17:44.373Z,2.11
2022-12-01T20:20:17.805Z,2.21
2022-12-01T20:22:47.449Z,2.22
2022-12-01T20:25:17.199Z,2.23
2022-12-01T20:27:47.284Z,2.25
2022-12-01T20:30:18.064Z,2.24
2022-12-01T20:32:47.735Z,2.25
2022-12-01T20:35:20.260Z,2.26
2022-12-01T20:37:50.229Z,2.25
2022-12-01T20:40:20.151Z,2.27
2022-12-01T20:42:50.086Z,2.30
2022-12-01T20:45:20.066Z,2.32
2022-12-01T20:47:50.085Z,2.33
2022-12-01T20:50:22.315Z,2.37
2022-12-01T20:52:51.965Z,2.38
2022-12-01T20:55:21.990Z,2.42
2022-12-01T20:57:51.859Z,2.45
2022-12-01T21:00:22.459Z,2.47
2022-12-01T21:02:52.234Z,2.47
2022-12-01T21:05:24.527Z,2.50
2022-12-01T21:07:54.269Z,2.54
2022-12-01T21:10:24.213Z,2.55
2022-12-01T21:13:12.248Z,2.58
2022-12-01T21:15:57.328Z,2.57
2022-12-01T21:18:36.080Z,2.58
2022-12-01T21:21:23.358Z,2.62
2022-12-01T21:24:11.162Z,2.65
2022-12-01T21:26:42.401Z,2.69
2022-12-01T21:29:30.943Z,2.72
2022-12-01T21:32:03.315Z,2.84
2022-12-01T21:34:36.481Z,2.95
2022-12-01T21:37:17.224Z,3.05
2022-12-01T21:39:48.534Z,3.04
2022-12-01T21:42:21.114Z,3.05
2022-12-01T21:44:51.737Z,3.04
2022-12-01T21:50:00.806Z,3.06
2022-12-01T21:52:37.409Z,3.08
2022-12-01T21:55:33.254Z,3.08
2022-12-01T21:58:02.887Z,3.14
2022-12-01T22:00:34.691Z,3.16
2022-12-01T22:03:19.861Z,3.15
2022-12-01T22:06:21.417Z,3.11
2022-12-01T22:08:47.606Z,3.11
2022-12-01T22:11:22.029Z,3.10
2022-12-01T22:13:56.253Z,3.09
2022-12-01T22:16:36.651Z,3.11
2022-12-01T22:19:30.687Z,3.09
2022-12-01T22:22:05.743Z,3.06
2022-12-01T22:24:46.943Z,3.02
2022-12-01T22:27:30.696Z,2.99
2022-12-01T22:30:03.152Z,2.98
2022-12-01T22:33:03.864Z,2.99
2022-12-01T22:35:39.078Z,2.98
2022-12-01T22:38:24.996Z,2.99
2022-12-01T22:41:03.614Z,2.98
2022-12-01T22:43:48.340Z,2.97
2022-12-01T22:46:34.242Z,3.01
2022-12-01T22:49:18.015Z,3.02
2022-12-01T22:51:50.796Z,3.01
2022-12-01T22:54:32.528Z,2.98
2022-12-01T22:57:14.497Z,2.96
2022-12-01T22:59:47.807Z,2.94
2022-12-01T23:02:23.951Z,2.97
2022-12-01T23:04:58.472Z,2.95
2022-12-01T23:07:33.703Z,2.94
2022-12-01T23:10:17.171Z,2.95
2022-12-01T23:12:51.367Z,2.98
2022-12-01T23:15:28.395Z,3.00
2022-12-01T23:17:58.177Z,3.05
2022-12-01T23:20:35.566Z,3.07
2022-12-01T23:23:10.651Z,3.07
2022-12-01T23:25:40.426Z,3.10
2022-12-01T23:28:14.822Z,3.14
2022-12-01T23:30:46.946Z,3.16
2022-12-01T23:33:21.521Z,3.20
2022-12-01T23:35:54.675Z,3.26
2022-12-01T23:38:27.790Z,3.25
2022-12-01T23:41:01.712Z,3.25
2022-12-01T23:43:37.573Z,3.25
2022-12-01T23:46:09.907Z,3.27
2022-12-01T23:48:43.525Z,3.28
2022-12-01T23:51:20.856Z,3.31
2022-12-01T23:53:50.872Z,3.33
2022-12-01T23:56:23.108Z,3.37
2022-12-01T23:58:57.436Z,3.37
